Time;durP1;ratioP1;P1;durP2;ratioP2;P2;SDS_P1;SDS_P2;PMS_P1;PMS_P2;Temp;Humidity;BMP_temperature;BMP_pressure;BME280_temperature;BME280_humidity;BME280_pressure;Samples;Min_cycle;Max_cycle;Signal;HPM_P1;HPM_P2
2021/07/26 00:02:11;;;;;;;8.70;7.50;;;19.00;99.90;;;;;;5047005;28;20033;-78
2021/07/26 00:04:37;;;;;;;10.20;8.35;;;19.00;99.90;;;;;;5047189;28;20043;-81
2021/07/26 00:07:04;;;;;;;12.15;8.18;;;18.90;99.90;;;;;;5046260;28;20403;-77
2021/07/26 00:09:34;;;;;;;8.13;7.32;;;18.90;99.90;;;;;;4999574;28;20049;-79
2021/07/26 00:12:00;;;;;;;9.82;8.38;;;18.90;99.90;;;;;;5007651;28;20054;-80
2021/07/26 00:14:27;;;;;;;10.02;7.88;;;18.80;99.90;;;;;;5045072;28;20464;-79
2021/07/26 00:16:53;;;;;;;8.63;7.82;;;18.80;99.90;;;;;;5012235;28;20056;-80
2021/07/26 00:19:19;;;;;;;7.78;6.90;;;18.70;99.90;;;;;;5046228;28;20044;-79
2021/07/26 00:21:46;;;;;;;11.40;7.18;;;18.70;99.90;;;;;;5015907;28;20404;-79
2021/07/26 00:24:12;;;;;;;7.10;6.40;;;18.70;99.90;;;;;;5044694;28;20029;-79
2021/07/26 00:26:39;;;;;;;8.98;7.55;;;18.70;99.90;;;;;;5012253;28;20056;-79
2021/07/26 00:29:05;;;;;;;8.38;7.47;;;18.60;99.90;;;;;;4994512;28;20058;-79
2021/07/26 00:31:31;;;;;;;8.18;7.38;;;18.60;99.90;;;;;;5026694;28;20378;-79
2021/07/26 00:34:28;;;;;;;7.43;6.75;;;18.60;99.90;;;;;;5044729;28;20040;-79
2021/07/26 00:36:55;;;;;;;8.20;7.32;;;18.60;99.90;;;;;;5011495;28;20393;-79
2021/07/26 00:39:24;;;;;;;8.00;7.20;;;18.50;99.90;;;;;;5033967;28;20055;-79
2021/07/26 00:41:51;;;;;;;8.23;6.88;;;18.50;99.90;;;;;;5004483;28;20048;-79
2021/07/26 00:44:19;;;;;;;7.68;6.75;;;18.50;99.90;;;;;;5027943;28;20037;-79
2021/07/26 00:46:47;;;;;;;7.32;5.97;;;18.40;99.90;;;;;;5044373;28;20029;-79
2021/07/26 00:49:15;;;;;;;7.13;6.50;;;18.40;99.90;;;;;;5011555;28;20041;-80
2021/07/26 00:51:47;;;;;;;7.45;6.68;;;18.40;99.90;;;;;;5010956;28;20040;-79
2021/07/26 00:54:17;;;;;;;7.22;6.53;;;18.40;99.90;;;;;;5043392;28;20044;-78
2021/07/26 00:56:45;;;;;;;8.57;7.05;;;18.30;99.90;;;;;;5027999;28;20043;-78
2021/07/26 00:59:12;;;;;;;7.25;6.55;;;18.30;99.90;;;;;;5011247;28;20052;-79
2021/07/26 01:01:39;;;;;;;9.32;7.10;;;18.30;99.90;;;;;;5045295;28;20037;-79
2021/07/26 01:04:05;;;;;;;7.97;6.72;;;18.30;99.90;;;;;;4992585;28;20045;-79
2021/07/26 01:06:32;;;;;;;7.00;6.15;;;18.30;99.90;;;;;;5056079;28;20067;-81
2021/07/26 01:09:00;;;;;;;7.47;6.47;;;18.20;99.90;;;;;;5052838;28;20037;-78
2021/07/26 01:11:26;;;;;;;8.05;6.57;;;18.20;99.90;;;;;;5007870;28;20038;-78
2021/07/26 01:13:53;;;;;;;7.05;6.35;;;18.20;99.90;;;;;;5042839;28;20043;-78
2021/07/26 01:16:19;;;;;;;6.07;5.13;;;18.10;99.90;;;;;;5009643;28;20376;-78
2021/07/26 01:18:46;;;;;;;7.15;5.80;;;18.10;99.90;;;;;;5025971;28;20535;-79
2021/07/26 01:21:15;;;;;;;9.05;6.75;;;18.10;99.90;;;;;;4976966;28;20049;-78
2021/07/26 01:23:45;;;;;;;6.43;5.82;;;18.10;99.90;;;;;;5023525;28;20053;-80
2021/07/26 01:26:14;;;;;;;7.45;6.10;;;18.00;99.90;;;;;;5010119;28;20517;-80
2021/07/26 01:28:43;;;;;;;6.53;5.93;;;18.00;99.90;;;;;;5050445;28;20033;-84
2021/07/26 01:31:10;;;;;;;8.15;6.47;;;18.00;99.90;;;;;;5028026;28;20075;-80
2021/07/26 01:33:38;;;;;;;7.45;6.55;;;18.00;99.90;;;;;;5015239;28;20068;-80
2021/07/26 01:36:06;;;;;;;6.97;6.25;;;18.00;99.90;;;;;;5010330;28;20052;-80
2021/07/26 01:38:32;;;;;;;9.35;6.55;;;18.00;99.90;;;;;;5026310;28;20041;-80
2021/07/26 01:41:04;;;;;;;8.68;7.88;;;17.90;99.90;;;;;;5009448;28;20033;-81
2021/07/26 01:43:38;;;;;;;7.40;6.68;;;17.90;99.90;;;;;;5002831;28;20060;-81
2021/07/26 01:46:16;;;;;;;7.50;6.40;;;17.80;99.90;;;;;;5020561;28;20073;-80
2021/07/26 01:49:20;;;;;;;8.70;6.80;;;17.80;99.90;;;;;;5011415;28;20396;-80
2021/07/26 01:51:48;;;;;;;7.88;6.47;;;17.80;99.90;;;;;;4991311;28;20053;-80
2021/07/26 01:54:15;;;;;;;7.63;6.70;;;17.70;99.90;;;;;;5021538;28;20053;-81
2021/07/26 01:56:41;;;;;;;6.95;6.22;;;17.70;99.90;;;;;;5025715;28;20053;-80
2021/07/26 01:59:08;;;;;;;8.00;6.97;;;17.70;99.90;;;;;;4993856;28;20053;-81
2021/07/26 02:01:35;;;;;;;7.15;5.95;;;17.70;99.90;;;;;;4992099;28;20503;-80
2021/07/26 02:04:01;;;;;;;8.07;5.97;;;17.70;99.90;;;;;;5009742;28;20404;-81
2021/07/26 02:06:28;;;;;;;7.57;6.88;;;17.70;99.90;;;;;;4993997;28;20049;-80
2021/07/26 02:08:54;;;;;;;7.85;7.03;;;17.70;99.90;;;;;;5024152;28;20041;-80
2021/07/26 02:11:23;;;;;;;10.80;7.65;;;17.70;99.90;;;;;;5000797;28;20052;-80
2021/07/26 02:13:51;;;;;;;8.02;7.22;;;17.70;99.90;;;;;;4976134;28;20057;-81
2021/07/26 02:16:18;;;;;;;9.25;7.45;;;17.60;99.90;;;;;;5010691;28;20519;-81
2021/07/26 02:18:45;;;;;;;7.90;7.07;;;17.60;99.90;;;;;;5009922;28;20046;-81
2021/07/26 02:21:11;;;;;;;8.77;7.45;;;17.60;99.90;;;;;;5019020;28;20033;-81
2021/07/26 02:23:37;;;;;;;8.32;7.43;;;17.60;99.90;;;;;;5025778;28;20053;-78
2021/07/26 02:26:04;;;;;;;10.48;7.60;;;17.60;99.90;;;;;;5042351;28;20053;-78
2021/07/26 02:28:32;;;;;;;8.45;7.55;;;17.60;99.90;;;;;;5027848;28;20057;-78
2021/07/26 02:30:58;;;;;;;9.75;6.63;;;17.60;99.90;;;;;;4996304;28;20045;-78
2021/07/26 02:33:24;;;;;;;9.23;7.25;;;17.60;99.90;;;;;;5030740;28;20041;-79
2021/07/26 02:35:51;;;;;;;8.38;7.20;;;17.60;99.90;;;;;;5031504;28;20388;-78
2021/07/26 02:38:17;;;;;;;7.30;6.60;;;17.50;99.90;;;;;;5030741;28;20041;-80
2021/07/26 02:40:44;;;;;;;8.07;7.05;;;17.50;99.90;;;;;;4997248;28;20366;-81
2021/07/26 02:43:10;;;;;;;9.18;7.65;;;17.50;99.90;;;;;;4993934;28;20049;-79
2021/07/26 02:45:37;;;;;;;8.32;7.40;;;17.50;99.90;;;;;;4996303;28;20048;-79
2021/07/26 02:48:03;;;;;;;7.78;6.93;;;17.50;99.90;;;;;;5029240;28;20057;-79
2021/07/26 02:50:30;;;;;;;8.52;6.80;;;17.50;99.90;;;;;;5029139;28;20067;-79
2021/07/26 02:53:00;;;;;;;9.10;7.68;;;17.50;99.90;;;;;;5028513;28;20057;-78
2021/07/26 02:55:27;;;;;;;9.55;7.65;;;17.50;99.90;;;;;;5012518;28;20056;-78
2021/07/26 02:57:54;;;;;;;8.10;7.30;;;17.50;99.90;;;;;;5012906;28;20037;-79
2021/07/26 03:00:20;;;;;;;10.25;7.85;;;17.50;99.90;;;;;;5028175;28;20049;-78
2021/07/26 03:02:46;;;;;;;8.93;7.15;;;17.40;99.90;;;;;;5002005;28;20068;-79
2021/07/26 03:05:13;;;;;;;8.88;7.25;;;17.40;99.90;;;;;;5027436;28;20060;-83
2021/07/26 03:07:39;;;;;;;9.48;7.70;;;17.40;99.90;;;;;;5018658;28;20052;-83
2021/07/26 03:10:06;;;;;;;9.18;7.30;;;17.50;99.90;;;;;;5028475;28;20693;-83
2021/07/26 03:12:33;;;;;;;9.38;7.40;;;17.40;99.90;;;;;;5045009;28;20396;-83
2021/07/26 03:14:59;;;;;;;10.50;7.75;;;17.50;99.90;;;;;;5004718;28;20052;-82
2021/07/26 03:17:26;;;;;;;9.45;8.30;;;17.50;99.90;;;;;;5046218;28;20060;-79
2021/07/26 03:19:55;;;;;;;8.80;7.90;;;17.50;99.90;;;;;;5029729;28;20041;-80
2021/07/26 03:22:57;;;;;;;8.88;7.57;;;17.40;99.90;;;;;;5029422;28;20120;-80
2021/07/26 03:25:24;;;;;;;8.20;7.40;;;17.40;99.90;;;;;;5047585;28;20044;-77
2021/07/26 03:27:51;;;;;;;9.30;7.97;;;17.40;99.90;;;;;;5048304;28;20048;-77
2021/07/26 03:30:19;;;;;;;8.30;7.45;;;17.40;99.90;;;;;;5036249;28;20511;-77
2021/07/26 03:32:45;;;;;;;11.27;8.02;;;17.40;99.90;;;;;;5014626;28;20049;-78
2021/07/26 03:35:13;;;;;;;9.23;8.18;;;17.40;99.90;;;;;;5046876;28;20032;-77
2021/07/26 03:37:40;;;;;;;9.38;8.38;;;17.40;99.90;;;;;;5029368;28;20396;-79
2021/07/26 03:40:08;;;;;;;8.73;7.75;;;17.40;99.90;;;;;;5029296;28;20052;-79
2021/07/26 03:42:38;;;;;;;8.68;7.63;;;17.40;99.90;;;;;;5044966;28;20479;-78
2021/07/26 03:45:06;;;;;;;10.77;8.45;;;17.40;99.90;;;;;;5028572;28;20048;-78
2021/07/26 03:47:33;;;;;;;9.85;8.82;;;17.40;99.90;;;;;;5045864;28;20029;-77
2021/07/26 03:50:00;;;;;;;12.45;11.05;;;17.40;99.90;;;;;;5018110;28;20048;-79
2021/07/26 03:52:27;;;;;;;10.00;9.00;;;17.40;99.90;;;;;;5011007;28;20056;-79
2021/07/26 03:54:57;;;;;;;10.10;8.02;;;17.40;99.90;;;;;;5030554;28;20048;-79
2021/07/26 03:57:23;;;;;;;8.70;7.85;;;17.30;99.90;;;;;;5013264;28;20045;-82
2021/07/26 03:59:50;;;;;;;8.85;7.50;;;17.30;99.90;;;;;;5029389;28;20044;-81
2021/07/26 04:02:16;;;;;;;9.55;8.27;;;17.30;99.90;;;;;;5028327;28;20041;-81
2021/07/26 04:04:43;;;;;;;11.68;8.82;;;17.30;99.90;;;;;;5046813;28;20036;-81
2021/07/26 04:07:17;;;;;;;10.52;7.50;;;17.30;99.90;;;;;;5009744;28;20053;-81
2021/07/26 04:09:47;;;;;;;7.65;6.80;;;17.30;99.90;;;;;;5030871;28;20052;-81
2021/07/26 04:12:19;;;;;;;10.25;6.90;;;17.30;99.90;;;;;;4997795;28;20049;-82
2021/07/26 04:14:46;;;;;;;8.25;7.40;;;17.30;99.90;;;;;;4999356;28;20038;-84
2021/07/26 04:17:13;;;;;;;8.80;7.32;;;17.30;99.90;;;;;;5044411;28;20033;-83
2021/07/26 04:19:39;;;;;;;12.27;6.72;;;17.30;99.90;;;;;;5010144;28;20041;-84
2021/07/26 04:22:05;;;;;;;9.15;6.80;;;17.30;99.90;;;;;;5047060;28;20040;-84
2021/07/26 04:24:32;;;;;;;10.05;7.10;;;17.30;99.90;;;;;;5046247;28;20041;-84
2021/07/26 04:26:58;;;;;;;9.73;7.13;;;17.30;99.90;;;;;;5014312;28;20049;-84
2021/07/26 04:29:25;;;;;;;7.07;6.38;;;17.30;99.90;;;;;;5047309;28;20041;-84
2021/07/26 04:31:51;;;;;;;7.75;6.45;;;17.30;99.90;;;;;;5020720;28;20055;-84
2021/07/26 04:34:17;;;;;;;8.32;6.00;;;17.30;99.90;;;;;;5045402;28;20539;-84
2021/07/26 04:36:44;;;;;;;6.68;6.05;;;17.30;99.90;;;;;;5011081;28;20045;-84
2021/07/26 04:39:11;;;;;;;6.90;6.10;;;17.30;99.90;;;;;;5007556;28;1104177;-84
2021/07/26 04:41:38;;;;;;;7.47;6.57;;;17.30;99.90;;;;;;5042395;28;20310;-84
2021/07/26 04:44:04;;;;;;;7.22;6.47;;;17.30;99.90;;;;;;5026740;28;20068;-84
2021/07/26 04:46:31;;;;;;;9.00;6.57;;;17.30;99.90;;;;;;5016232;28;20484;-81
2021/07/26 04:48:57;;;;;;;8.80;6.35;;;17.30;99.90;;;;;;4993128;28;20052;-82
2021/07/26 04:51:24;;;;;;;11.18;6.60;;;17.30;99.90;;;;;;5020678;28;20060;-81
2021/07/26 04:53:50;;;;;;;6.32;5.72;;;17.40;99.90;;;;;;5023896;28;20048;-82
2021/07/26 04:56:16;;;;;;;6.35;5.70;;;17.40;99.90;;;;;;5011869;28;20056;-81
2021/07/26 04:59:02;;;;;;;6.03;5.53;;;17.40;99.90;;;;;;5043684;28;20048;-82
2021/07/26 05:01:28;;;;;;;6.55;5.63;;;17.50;99.90;;;;;;5021960;28;20420;-82
2021/07/26 05:03:55;;;;;;;7.68;5.13;;;17.50;99.90;;;;;;5045043;28;20377;-81
2021/07/26 05:06:21;;;;;;;6.57;5.75;;;17.50;99.90;;;;;;4994984;28;20071;-82
2021/07/26 05:08:47;;;;;;;9.15;5.35;;;17.60;99.90;;;;;;5022875;28;20056;-82
2021/07/26 05:11:14;;;;;;;6.68;5.28;;;17.70;99.90;;;;;;5043918;28;20041;-83
2021/07/26 05:13:40;;;;;;;6.53;5.70;;;17.80;99.90;;;;;;5027027;28;20056;-83
2021/07/26 05:16:07;;;;;;;5.85;5.05;;;17.90;99.90;;;;;;5044823;28;20036;-83
2021/07/26 05:18:33;;;;;;;6.72;5.28;;;18.00;99.90;;;;;;5045257;28;20086;-82
2021/07/26 05:20:59;;;;;;;6.05;5.03;;;18.10;99.90;;;;;;5018620;28;20042;-81
2021/07/26 05:23:26;;;;;;;6.72;5.25;;;18.10;99.90;;;;;;5023780;28;20120;-81
2021/07/26 05:25:52;;;;;;;5.88;4.85;;;18.20;99.90;;;;;;5044508;28;20911;-81
2021/07/26 05:28:18;;;;;;;10.25;5.97;;;18.20;99.90;;;;;;5043562;28;20047;-81
2021/07/26 05:30:46;;;;;;;5.28;4.78;;;18.20;99.90;;;;;;5010183;28;20507;-81
2021/07/26 05:33:12;;;;;;;6.22;4.82;;;18.30;99.90;;;;;;5045749;28;20044;-81
2021/07/26 05:35:41;;;;;;;5.78;4.90;;;18.40;99.90;;;;;;5045214;28;20044;-82
2021/07/26 05:38:07;;;;;;;6.97;4.97;;;18.50;99.90;;;;;;5021777;28;20037;-81
2021/07/26 05:40:34;;;;;;;6.32;4.88;;;18.70;99.90;;;;;;5044312;28;20053;-79
2021/07/26 05:43:00;;;;;;;8.32;4.78;;;18.80;99.90;;;;;;5009794;28;20048;-81
2021/07/26 05:45:27;;;;;;;5.13;4.25;;;19.00;99.90;;;;;;5016251;28;20057;-81
2021/07/26 05:47:53;;;;;;;7.35;4.97;;;19.20;99.90;;;;;;4993783;28;20054;-79
2021/07/26 05:50:20;;;;;;;6.25;5.05;;;19.30;99.90;;;;;;5009908;28;20037;-79
2021/07/26 05:52:46;;;;;;;7.35;5.00;;;19.50;99.90;;;;;;4989688;28;20050;-79
2021/07/26 05:55:13;;;;;;;4.80;4.00;;;19.50;99.90;;;;;;5025091;28;20472;-78
2021/07/26 05:57:45;;;;;;;6.35;4.72;;;19.50;99.90;;;;;;5026021;28;20037;-79
2021/07/26 06:00:14;;;;;;;6.22;4.57;;;19.40;99.90;;;;;;5028532;28;20048;-79
2021/07/26 06:02:40;;;;;;;6.65;4.85;;;19.40;99.90;;;;;;5007164;28;20041;-78
2021/07/26 06:05:07;;;;;;;5.80;4.90;;;19.40;99.90;;;;;;4992269;28;20061;-79
2021/07/26 06:07:33;;;;;;;5.35;3.97;;;19.50;99.90;;;;;;5011506;28;20051;-79
2021/07/26 06:10:00;;;;;;;5.80;4.70;;;19.50;99.90;;;;;;5044236;28;20594;-78
2021/07/26 06:12:29;;;;;;;6.05;4.97;;;19.60;99.90;;;;;;5009849;28;20049;-78
2021/07/26 06:14:56;;;;;;;6.65;4.38;;;19.70;99.90;;;;;;4994310;28;20048;-79
2021/07/26 06:17:22;;;;;;;6.53;4.70;;;20.00;99.90;;;;;;5025880;28;20519;-80
2021/07/26 06:19:49;;;;;;;8.15;5.03;;;20.20;99.90;;;;;;5011455;28;20059;-78
2021/07/26 06:22:17;;;;;;;6.75;5.57;;;20.50;99.90;;;;;;5016449;28;20045;-79
2021/07/26 06:24:44;;;;;;;5.28;4.32;;;20.70;99.90;;;;;;5042431;28;20037;-79
2021/07/26 06:27:11;;;;;;;7.72;5.40;;;20.90;99.90;;;;;;5007679;28;20049;-77
2021/07/26 06:29:37;;;;;;;6.10;4.63;;;21.10;99.90;;;;;;5042788;28;20051;-77
2021/07/26 06:32:04;;;;;;;5.82;4.28;;;21.10;99.90;;;;;;5024967;28;20109;-77
2021/07/26 06:34:30;;;;;;;5.88;3.95;;;21.00;99.90;;;;;;5025624;28;20037;-77
2021/07/26 06:36:57;;;;;;;5.13;4.55;;;21.00;99.90;;;;;;5040916;28;20040;-77
2021/07/26 06:39:23;;;;;;;6.00;4.57;;;21.20;99.90;;;;;;5026047;28;20060;-77
2021/07/26 06:41:50;;;;;;;6.55;4.75;;;21.40;99.90;;;;;;5024335;28;20037;-77
2021/07/26 06:44:16;;;;;;;5.78;5.18;;;21.50;99.90;;;;;;5039379;28;20539;-80
2021/07/26 06:46:42;;;;;;;5.63;4.78;;;21.60;99.90;;;;;;5002649;28;20041;-78
2021/07/26 06:49:09;;;;;;;8.23;4.60;;;21.60;99.90;;;;;;5041691;28;20045;-77
2021/07/26 06:51:35;;;;;;;6.95;4.82;;;21.50;99.90;;;;;;5008882;28;20048;-79
2021/07/26 06:54:02;;;;;;;5.00;4.18;;;21.30;99.90;;;;;;5005725;28;20496;-78
2021/07/26 06:56:28;;;;;;;7.93;5.45;;;21.20;99.90;;;;;;5025587;28;20515;-78
2021/07/26 06:58:54;;;;;;;7.88;4.70;;;21.10;99.90;;;;;;5042797;28;20037;-78
2021/07/26 07:01:21;;;;;;;5.28;4.78;;;21.10;99.90;;;;;;5042681;28;20492;-78
2021/07/26 07:03:47;;;;;;;8.00;4.32;;;21.10;99.90;;;;;;5043493;28;20044;-79
2021/07/26 07:06:20;;;;;;;6.30;4.35;;;21.10;99.90;;;;;;5010066;28;20036;-83
2021/07/26 07:08:46;;;;;;;6.40;5.47;;;21.20;99.90;;;;;;5027903;28;20044;-79
2021/07/26 07:11:14;;;;;;;6.57;5.43;;;21.30;99.90;;;;;;5044091;28;20065;-80
2021/07/26 07:13:47;;;;;;;5.10;4.57;;;21.40;99.90;;;;;;5027467;28;20049;-81
2021/07/26 07:16:17;;;;;;;9.93;5.00;;;21.50;99.90;;;;;;5048776;28;20037;-80
2021/07/26 07:18:51;;;;;;;5.55;4.68;;;21.50;99.90;;;;;;5051183;28;20364;-82
2021/07/26 07:21:23;;;;;;;7.35;5.32;;;21.60;99.90;;;;;;5047765;28;20391;-81
2021/07/26 07:23:50;;;;;;;5.50;5.00;;;21.70;99.90;;;;;;5046935;28;20052;-80
2021/07/26 07:26:18;;;;;;;6.55;4.65;;;21.70;99.90;;;;;;5047203;28;20044;-80
2021/07/26 07:28:45;;;;;;;5.60;4.60;;;21.80;99.90;;;;;;5029050;28;20041;-82
2021/07/26 07:31:13;;;;;;;7.10;4.88;;;21.80;99.90;;;;;;5044011;28;20036;-82
2021/07/26 07:33:39;;;;;;;6.85;5.55;;;21.90;99.90;;;;;;5027675;28;20037;-82
2021/07/26 07:36:06;;;;;;;5.50;4.97;;;22.00;99.90;;;;;;5047006;28;20048;-82
2021/07/26 07:38:34;;;;;;;7.38;5.15;;;22.00;99.90;;;;;;5043708;28;20044;-82
2021/07/26 07:41:02;;;;;;;7.65;4.93;;;22.20;99.90;;;;;;5029660;28;20056;-82
2021/07/26 07:43:29;;;;;;;6.70;5.97;;;22.40;99.90;;;;;;5045594;28;20029;-82
2021/07/26 07:45:56;;;;;;;7.70;5.65;;;22.40;99.90;;;;;;5047069;28;20523;-83
2021/07/26 07:48:25;;;;;;;7.28;5.75;;;22.40;99.90;;;;;;5027286;28;20408;-82
2021/07/26 07:50:53;;;;;;;7.15;5.47;;;22.30;99.90;;;;;;5027895;28;20048;-83
2021/07/26 07:53:20;;;;;;;9.23;5.80;;;22.30;99.90;;;;;;5045242;28;20373;-81
2021/07/26 07:55:47;;;;;;;6.13;4.82;;;22.30;99.90;;;;;;5050612;28;20520;-83
2021/07/26 07:58:14;;;;;;;5.55;4.22;;;22.30;99.90;;;;;;5029779;28;20056;-82
2021/07/26 08:00:40;;;;;;;6.75;4.82;;;22.40;99.90;;;;;;5045808;28;20447;-82
2021/07/26 08:03:07;;;;;;;5.90;5.00;;;22.50;99.90;;;;;;5027506;28;20052;-83
2021/07/26 08:05:33;;;;;;;6.45;5.80;;;22.60;99.90;;;;;;5044951;28;20400;-82
2021/07/26 08:08:00;;;;;;;6.50;5.05;;;22.70;99.90;;;;;;5029683;28;20041;-81
2021/07/26 08:10:27;;;;;;;6.72;6.03;;;22.70;99.90;;;;;;5028609;28;20033;-81
2021/07/26 08:12:53;;;;;;;6.97;5.55;;;22.80;99.90;;;;;;5011009;28;20080;-79
2021/07/26 08:15:20;;;;;;;4.47;4.03;;;22.80;99.90;;;;;;5045685;28;20051;-79
2021/07/26 08:17:48;;;;;;;7.60;6.85;;;22.90;99.90;;;;;;5046390;28;20052;-80
2021/07/26 08:20:17;;;;;;;4.80;4.40;;;23.00;99.90;;;;;;5046604;28;20745;-80
2021/07/26 08:22:44;;;;;;;4.40;3.92;;;23.10;99.90;;;;;;5045503;28;20032;-80
2021/07/26 08:25:11;;;;;;;6.38;4.55;;;23.10;99.90;;;;;;5018465;28;20072;-80
2021/07/26 08:27:54;;;;;;;4.10;3.70;;;23.20;99.90;;;;;;5047402;28;20052;-80
2021/07/26 08:30:26;;;;;;;4.43;3.90;;;23.50;99.90;;;;;;5046735;28;20040;-80
2021/07/26 08:32:54;;;;;;;5.00;4.57;;;23.60;99.90;;;;;;5037604;28;20033;-80
2021/07/26 08:35:21;;;;;;;5.28;4.78;;;23.70;99.90;;;;;;5045491;28;20045;-80
2021/07/26 08:37:48;;;;;;;7.15;4.93;;;23.60;99.90;;;;;;5013161;28;20064;-81
2021/07/26 08:40:15;;;;;;;5.03;4.47;;;23.70;99.90;;;;;;5012862;28;20057;-80
2021/07/26 08:42:41;;;;;;;4.13;3.72;;;23.70;99.90;;;;;;5028141;28;20045;-80
2021/07/26 08:45:11;;;;;;;6.53;3.67;;;23.60;99.90;;;;;;5005771;28;20048;-79
2021/07/26 08:47:41;;;;;;;6.10;3.33;;;23.50;99.90;;;;;;5045733;28;20385;-80
2021/07/26 08:50:09;;;;;;;3.38;2.55;;;23.50;99.90;;;;;;5047159;28;20041;-79
2021/07/26 08:52:49;;;;;;;5.18;3.05;;;23.50;99.90;;;;;;5043365;28;20047;-80
2021/07/26 08:55:21;;;;;;;3.42;3.13;;;23.50;99.90;;;;;;5043292;28;20053;-80
2021/07/26 08:57:49;;;;;;;5.93;3.60;;;23.50;99.90;;;;;;5011412;28;20876;-80
2021/07/26 09:00:19;;;;;;;3.38;3.08;;;23.40;99.90;;;;;;5027346;28;20130;-80
2021/07/26 09:02:46;;;;;;;4.88;4.38;;;23.40;99.90;;;;;;5024240;28;20046;-80
2021/07/26 09:05:13;;;;;;;3.65;3.35;;;23.30;99.90;;;;;;5027566;28;20648;-80
2021/07/26 09:07:41;;;;;;;4.05;3.00;;;23.30;99.90;;;;;;5010354;28;20042;-80
2021/07/26 09:10:19;;;;;;;5.32;3.15;;;23.40;99.90;;;;;;5029063;28;20045;-80
2021/07/26 09:12:48;;;;;;;5.43;3.60;;;23.60;99.90;;;;;;5043133;28;20045;-80
2021/07/26 09:15:32;;;;;;;3.95;3.63;;;23.70;99.90;;;;;;5027689;28;20037;-80
2021/07/26 09:18:03;;;;;;;5.68;3.55;;;23.80;99.90;;;;;;5046971;28;20488;-80
2021/07/26 09:20:31;;;;;;;3.03;2.63;;;24.00;99.80;;;;;;5010327;28;20040;-81
2021/07/26 09:23:07;;;;;;;3.50;2.90;;;24.10;99.60;;;;;;5044920;28;20037;-80
2021/07/26 09:25:34;;;;;;;3.33;2.85;;;24.10;99.40;;;;;;5045029;28;20041;-81
2021/07/26 09:28:14;;;;;;;4.45;3.15;;;24.10;98.90;;;;;;5012301;28;20041;-80
2021/07/26 09:30:54;;;;;;;5.90;2.95;;;24.10;99.00;;;;;;5039722;28;20054;-81
2021/07/26 09:33:23;;;;;;;3.47;2.97;;;24.20;98.80;;;;;;5043203;28;20043;-81
2021/07/26 09:36:12;;;;;;;3.40;2.55;;;24.20;98.60;;;;;;5041804;28;20045;-80
2021/07/26 09:38:55;;;;;;;3.35;2.72;;;24.10;98.50;;;;;;5027664;28;20041;-80
2021/07/26 09:41:45;;;;;;;4.57;3.35;;;24.20;98.80;;;;;;5044738;28;20032;-80
2021/07/26 09:44:12;;;;;;;4.57;2.80;;;24.50;98.00;;;;;;5042077;28;20044;-82
2021/07/26 09:46:39;;;;;;;4.53;2.50;;;24.70;97.80;;;;;;5044655;28;20045;-81
2021/07/26 09:49:11;;;;;;;3.38;2.55;;;24.90;97.50;;;;;;5011227;28;20053;-80
2021/07/26 09:51:38;;;;;;;3.35;3.05;;;25.40;97.50;;;;;;5043499;28;20041;-80
2021/07/26 09:54:05;;;;;;;2.97;1.98;;;25.60;96.50;;;;;;5046674;28;20377;-80
2021/07/26 09:56:33;;;;;;;2.65;1.60;;;25.70;95.90;;;;;;5012705;28;20052;-81
2021/07/26 09:59:01;;;;;;;2.30;1.40;;;25.80;95.70;;;;;;5047605;28;20075;-81
2021/07/26 10:01:31;;;;;;;6.13;1.40;;;25.90;95.40;;;;;;5031502;28;20048;-81
2021/07/26 10:03:57;;;;;;;2.63;1.50;;;26.10;95.40;;;;;;5031142;28;20033;-80
2021/07/26 10:06:26;;;;;;;1.58;1.00;;;26.20;95.20;;;;;;5052849;28;20056;-80
2021/07/26 10:08:55;;;;;;;2.33;1.58;;;26.20;94.60;;;;;;5043760;28;20404;-81
2021/07/26 10:11:22;;;;;;;3.13;1.38;;;26.20;94.20;;;;;;5041795;28;20033;-81
2021/07/26 10:13:50;;;;;;;1.85;1.35;;;26.30;93.20;;;;;;5044112;28;20051;-82
2021/07/26 10:16:18;;;;;;;1.60;0.90;;;26.40;93.10;;;;;;5044484;28;20041;-81
2021/07/26 10:18:46;;;;;;;3.10;1.20;;;26.60;93.00;;;;;;5044780;28;20037;-81
2021/07/26 10:21:17;;;;;;;2.50;0.90;;;26.80;92.60;;;;;;5046159;28;20464;-81
2021/07/26 10:23:56;;;;;;;1.83;0.93;;;26.80;92.20;;;;;;5027691;28;20036;-80
2021/07/26 10:26:39;;;;;;;2.08;1.20;;;26.80;92.00;;;;;;5045643;28;20025;-80
2021/07/26 10:29:06;;;;;;;1.45;1.05;;;26.80;91.90;;;;;;5028498;28;20911;-80
2021/07/26 10:31:35;;;;;;;1.23;0.90;;;26.80;91.70;;;;;;5043655;28;20029;-80
2021/07/26 10:34:13;;;;;;;1.60;1.23;;;26.70;91.50;;;;;;5011374;28;20538;-80
2021/07/26 10:36:42;;;;;;;2.25;1.20;;;26.70;91.10;;;;;;5045998;28;20040;-80
2021/07/26 10:39:12;;;;;;;2.40;1.30;;;26.80;91.00;;;;;;5000868;28;20046;-80
2021/07/26 10:41:45;;;;;;;2.72;1.00;;;26.70;90.80;;;;;;5028000;28;20045;-81
2021/07/26 10:44:18;;;;;;;3.25;1.30;;;26.70;91.10;;;;;;5044992;28;20498;-85
2021/07/26 10:46:53;;;;;;;2.25;1.55;;;26.60;90.50;;;;;;5043316;28;20029;-83
2021/07/26 10:49:20;;;;;;;5.78;4.20;;;26.30;90.00;;;;;;5048995;28;20037;-83
2021/07/26 10:51:50;;;;;;;2.85;2.55;;;26.10;90.50;;;;;;5051175;28;20416;-84
2021/07/26 10:54:29;;;;;;;5.15;4.68;;;26.10;90.80;;;;;;5014269;28;20080;-81
2021/07/26 10:57:03;;;;;;;2.35;2.15;;;25.90;91.10;;;;;;5046756;28;20036;-85
2021/07/26 10:59:30;;;;;;;3.65;3.33;;;25.80;91.20;;;;;;5015842;28;20052;-83
2021/07/26 11:01:58;;;;;;;1.63;1.17;;;25.70;91.20;;;;;;5014232;28;20041;-87
2021/07/26 11:04:35;;;;;;;6.13;5.30;;;25.50;90.80;;;;;;5014747;28;20045;-87
2021/07/26 11:07:06;;;;;;;3.15;1.73;;;25.30;90.80;;;;;;5019809;28;20048;-84
2021/07/26 11:09:44;;;;;;;3.22;1.92;;;25.30;90.90;;;;;;5032284;28;20056;-84
2021/07/26 11:12:11;;;;;;;1.52;1.30;;;25.20;90.80;;;;;;5045024;28;20044;-85
2021/07/26 11:14:37;;;;;;;2.13;1.42;;;25.20;91.10;;;;;;4998610;28;20049;-84
2021/07/26 11:17:09;;;;;;;1.90;1.48;;;25.30;91.10;;;;;;5030393;28;20083;-84
2021/07/26 11:19:44;;;;;;;1.75;1.40;;;25.40;90.70;;;;;;5016848;28;20041;-84
2021/07/26 11:22:17;;;;;;;1.45;1.25;;;25.50;90.40;;;;;;5021505;28;20123;-82
2021/07/26 11:24:54;;;;;;;3.00;1.00;;;25.50;90.20;;;;;;5033889;28;20135;-87
2021/07/26 11:27:24;;;;;;;1.83;0.70;;;25.70;90.50;;;;;;5031073;28;20036;-85
2021/07/26 11:29:54;;;;;;;2.72;2.20;;;25.80;90.50;;;;;;5013541;28;20059;-85
2021/07/26 11:32:22;;;;;;;1.88;1.10;;;25.90;90.10;;;;;;4983785;28;20040;-84
2021/07/26 11:35:03;;;;;;;1.95;1.60;;;26.00;88.60;;;;;;5049334;28;20040;-83
2021/07/26 11:37:37;;;;;;;2.58;0.63;;;26.20;87.80;;;;;;4998132;28;20041;-86
2021/07/26 11:40:08;;;;;;;2.00;0.70;;;26.80;87.80;;;;;;5041608;28;20045;-83
2021/07/26 11:42:37;;;;;;;1.13;0.63;;;27.60;84.10;;;;;;5028642;28;20052;-85
2021/07/26 11:45:06;;;;;;;1.35;0.60;;;28.50;83.70;;;;;;5034175;28;20037;-84
2021/07/26 11:47:35;;;;;;;1.65;0.80;;;29.40;80.70;;;;;;5044881;28;20033;-84
2021/07/26 11:50:10;;;;;;;3.45;2.05;;;30.10;78.20;;;;;;5007350;28;20046;-85
2021/07/26 11:52:38;;;;;;;4.47;2.65;;;30.40;74.60;;;;;;5016626;28;20048;-82
2021/07/26 11:55:15;;;;;;;1.35;0.70;;;30.40;74.10;;;;;;5044589;28;20044;-83
2021/07/26 11:57:54;;;;;;;1.08;0.60;;;30.50;72.50;;;;;;5044667;28;20031;-80
2021/07/26 12:00:26;;;;;;;1.30;0.60;;;30.90;72.10;;;;;;5044606;28;20037;-82
2021/07/26 12:02:53;;;;;;;2.08;0.50;;;31.50;70.50;;;;;;5026866;28;20037;-80
2021/07/26 12:05:30;;;;;;;1.40;0.50;;;31.90;68.20;;;;;;5046319;28;20037;-84
2021/07/26 12:07:58;;;;;;;2.03;0.70;;;32.40;65.50;;;;;;5046600;28;20037;-84
2021/07/26 12:10:37;;;;;;;2.53;2.33;;;32.70;64.00;;;;;;4981650;28;20045;-82
2021/07/26 12:13:09;;;;;;;1.45;0.80;;;32.80;62.90;;;;;;5028262;28;20057;-85
2021/07/26 12:15:38;;;;;;;1.00;0.75;;;33.10;61.80;;;;;;5029353;28;20743;-85
2021/07/26 12:18:11;;;;;;;1.05;0.65;;;33.50;61.50;;;;;;5011659;28;20041;-85
2021/07/26 12:20:58;;;;;;;2.00;0.70;;;34.00;59.90;;;;;;5009380;28;20385;-84
2021/07/26 12:23:27;;;;;;;1.15;0.70;;;33.70;57.90;;;;;;5012269;28;20808;-83
2021/07/26 12:26:09;;;;;;;1.27;0.60;;;33.00;58.50;;;;;;5029360;28;20500;-84
2021/07/26 12:28:53;;;;;;;1.25;0.80;;;32.90;59.60;;;;;;5006867;28;20064;-85
2021/07/26 12:31:33;;;;;;;2.28;0.93;;;32.70;59.90;;;;;;5028427;28;20040;-84
2021/07/26 12:34:23;;;;;;;1.27;0.75;;;32.10;60.40;;;;;;5027341;28;20048;-85
2021/07/26 12:36:52;;;;;;;1.80;0.80;;;31.60;61.70;;;;;;5026624;28;20896;-84
2021/07/26 12:39:19;;;;;;;2.35;0.73;;;31.40;62.00;;;;;;5011148;28;20376;-83
2021/07/26 12:41:49;;;;;;;3.85;2.78;;;31.60;62.20;;;;;;4999219;28;20501;-85
2021/07/26 12:44:26;;;;;;;1.85;1.10;;;31.70;61.30;;;;;;5019620;28;20046;-83
2021/07/26 12:46:53;;;;;;;1.52;1.00;;;31.60;61.80;;;;;;5004990;28;20045;-84
2021/07/26 12:49:21;;;;;;;2.67;0.77;;;31.20;61.80;;;;;;5012299;28;20073;-86
2021/07/26 12:51:50;;;;;;;1.70;0.65;;;31.00;62.90;;;;;;5009532;28;20048;-80
2021/07/26 12:54:17;;;;;;;1.52;0.63;;;31.00;62.00;;;;;;5043194;28;20051;-85
2021/07/26 12:56:44;;;;;;;2.95;0.65;;;31.20;61.10;;;;;;4982863;28;20041;-81